Time;durP1;ratioP1;P1;durP2;ratioP2;P2;SDS_P1;SDS_P2;PMS_P1;PMS_P2;Temp;Humidity;BMP_temperature;BMP_pressure;BME280_temperature;BME280_humidity;BME280_pressure;Samples;Min_cycle;Max_cycle;Signal;HPM_P1;HPM_P2
2022/11/02 00:01:40;;;;;;;42.50;20.65;;;;;;;;;;5053649;28;20114;-78
2022/11/02 00:04:08;;;;;;;38.70;18.05;;;;;;;;;;5033476;28;20482;-78
2022/11/02 00:06:34;;;;;;;32.10;16.40;;;;;;;;;;5022059;28;20508;-78
2022/11/02 00:09:00;;;;;;;29.80;13.93;;;;;;;;;;5037017;28;20022;-77
2022/11/02 00:11:26;;;;;;;22.70;11.10;;;;;;;;;;5029946;28;20044;-77
2022/11/02 00:13:52;;;;;;;18.50;9.48;;;;;;;;;;5045907;28;20025;-76
2022/11/02 00:16:20;;;;;;;20.67;10.38;;;;;;;;;;5046719;28;20025;-77
2022/11/02 00:18:47;;;;;;;27.52;12.68;;;;;;;;;;5019395;28;20116;-75
2022/11/02 00:21:15;;;;;;;31.83;15.35;;;;;;;;;;5034036;28;20450;-77
2022/11/02 00:23:41;;;;;;;35.58;15.70;;;;;;;;;;5034415;28;20060;-78
2022/11/02 00:26:07;;;;;;;44.08;20.98;;;;;;;;;;5036005;28;20426;-78
2022/11/02 00:28:33;;;;;;;41.50;19.35;;;;;;;;;;5047098;28;20462;-79
2022/11/02 00:30:59;;;;;;;47.60;20.05;;;;;;;;;;5034392;28;20112;-79
2022/11/02 00:33:25;;;;;;;52.22;22.25;;;;;;;;;;5045921;28;20701;-79
2022/11/02 00:35:53;;;;;;;49.30;22.17;;;;;;;;;;5038542;28;20029;-79
2022/11/02 00:38:19;;;;;;;36.42;20.33;;;;;;;;;;5034936;28;20075;-79
2022/11/02 00:40:45;;;;;;;49.10;20.65;;;;;;;;;;5023954;28;20043;-78
2022/11/02 00:43:11;;;;;;;39.42;18.60;;;;;;;;;;5050853;28;20320;-78
2022/11/02 00:45:37;;;;;;;36.83;18.75;;;;;;;;;;5045088;28;20072;-78
2022/11/02 00:48:03;;;;;;;44.13;16.05;;;;;;;;;;5036453;28;20392;-78
2022/11/02 00:50:30;;;;;;;40.78;18.92;;;;;;;;;;5047519;28;20095;-78
2022/11/02 00:52:55;;;;;;;43.53;18.08;;;;;;;;;;5043094;28;20037;-77
2022/11/02 00:55:21;;;;;;;45.10;21.67;;;;;;;;;;5042780;28;20021;-78
2022/11/02 00:57:47;;;;;;;47.10;22.02;;;;;;;;;;5049631;28;20029;-78
2022/11/02 01:00:14;;;;;;;56.00;25.20;;;;;;;;;;5033575;28;20021;-77
2022/11/02 01:02:40;;;;;;;52.58;23.63;;;;;;;;;;5040569;28;20491;-76
2022/11/02 01:05:06;;;;;;;48.45;21.73;;;;;;;;;;5050653;28;20025;-77
2022/11/02 01:07:33;;;;;;;42.47;20.23;;;;;;;;;;5032593;28;20364;-77
2022/11/02 01:09:59;;;;;;;37.85;20.25;;;;;;;;;;5049188;28;20052;-77
2022/11/02 01:12:25;;;;;;;44.80;20.88;;;;;;;;;;5038087;28;20493;-78
2022/11/02 01:14:51;;;;;;;38.08;19.15;;;;;;;;;;5047173;28;20044;-78
2022/11/02 01:17:17;;;;;;;48.47;20.65;;;;;;;;;;5038186;28;20480;-78
2022/11/02 01:19:45;;;;;;;37.42;17.95;;;;;;;;;;5036016;28;20029;-78
2022/11/02 01:22:13;;;;;;;43.58;21.33;;;;;;;;;;5048229;28;20025;-79
2022/11/02 01:24:39;;;;;;;41.58;21.48;;;;;;;;;;5047245;28;20161;-79
2022/11/02 01:27:06;;;;;;;44.67;19.73;;;;;;;;;;5038524;28;20113;-79
2022/11/02 01:29:32;;;;;;;41.05;17.85;;;;;;;;;;5030930;28;20021;-79
2022/11/02 01:31:58;;;;;;;40.15;17.80;;;;;;;;;;5037204;28;20017;-79
2022/11/02 01:34:31;;;;;;;41.70;17.42;;;;;;;;;;5035965;28;20029;-80
2022/11/02 01:36:57;;;;;;;40.53;18.33;;;;;;;;;;5034423;28;20605;-76
2022/11/02 01:39:23;;;;;;;51.67;21.83;;;;;;;;;;5041975;28;20447;-77
2022/11/02 01:41:54;;;;;;;37.95;18.67;;;;;;;;;;5030695;28;20074;-78
2022/11/02 01:44:26;;;;;;;43.40;19.33;;;;;;;;;;5019156;28;20024;-77
2022/11/02 01:46:53;;;;;;;39.55;17.77;;;;;;;;;;5040759;28;20029;-78
2022/11/02 01:49:19;;;;;;;31.10;15.30;;;;;;;;;;5032619;28;20092;-79
2022/11/02 01:51:48;;;;;;;27.55;12.55;;;;;;;;;;5030957;28;20096;-79
2022/11/02 01:54:16;;;;;;;32.08;13.90;;;;;;;;;;5038604;28;20078;-79
2022/11/02 01:56:45;;;;;;;35.00;12.55;;;;;;;;;;5047957;28;20032;-79
2022/11/02 01:59:14;;;;;;;26.73;11.02;;;;;;;;;;5040018;28;20025;-78
2022/11/02 02:01:40;;;;;;;17.17;7.78;;;;;;;;;;5029789;28;20453;-78
2022/11/02 02:04:06;;;;;;;11.18;6.43;;;;;;;;;;5028898;28;20013;-78
2022/11/02 02:06:32;;;;;;;12.40;6.30;;;;;;;;;;5026014;28;20021;-79
2022/11/02 02:09:00;;;;;;;17.15;7.53;;;;;;;;;;5023926;28;20044;-79
2022/11/02 02:11:36;;;;;;;17.05;7.35;;;;;;;;;;5038808;28;20090;-80
2022/11/02 02:14:02;;;;;;;19.27;8.50;;;;;;;;;;5031363;28;20013;-80
2022/11/02 02:16:37;;;;;;;19.58;10.55;;;;;;;;;;5038442;28;20024;-79
2022/11/02 02:19:10;;;;;;;28.77;11.65;;;;;;;;;;5024918;28;20044;-79
2022/11/02 02:21:42;;;;;;;35.10;14.77;;;;;;;;;;5019579;28;20463;-79
2022/11/02 02:24:26;;;;;;;29.05;10.57;;;;;;;;;;5031174;28;20030;-79
2022/11/02 02:27:02;;;;;;;20.30;9.55;;;;;;;;;;5019711;28;20502;-78
2022/11/02 02:29:37;;;;;;;22.50;8.80;;;;;;;;;;5027515;28;20032;-78
2022/11/02 02:32:13;;;;;;;15.60;7.07;;;;;;;;;;5034174;28;20056;-79
2022/11/02 02:35:02;;;;;;;13.23;6.65;;;;;;;;;;5032517;28;20041;-79
2022/11/02 02:37:30;;;;;;;16.30;7.55;;;;;;;;;;5006862;28;20037;-80
2022/11/02 02:39:56;;;;;;;14.38;7.28;;;;;;;;;;5046761;28;20033;-78
2022/11/02 02:42:30;;;;;;;16.20;7.45;;;;;;;;;;5027554;28;20096;-79
2022/11/02 02:45:04;;;;;;;16.25;6.53;;;;;;;;;;5032626;28;20040;-79
2022/11/02 02:47:34;;;;;;;19.90;8.00;;;;;;;;;;5028031;28;20112;-79
2022/11/02 02:58:28;;;;;;;14.95;6.13;;;;;;;;;;5000712;28;20072;-78
2022/11/02 03:01:09;;;;;;;;;;;;;;;;;;5003752;28;20021;-79
2022/11/02 03:09:51;;;;;;;11.98;4.88;;;;;;;;;;3259404;26;20052;-78
2022/11/02 03:12:29;;;;;;;18.55;5.45;;;;;;;;;;5083421;28;20040;-78
2022/11/02 03:15:05;;;;;;;14.35;5.68;;;;;;;;;;5071421;28;20059;-80
2022/11/02 03:17:33;;;;;;;14.07;5.63;;;;;;;;;;5057378;28;20025;-79
2022/11/02 03:20:25;;;;;;;12.40;5.22;;;;;;;;;;5044656;28;20506;-80
2022/11/02 03:22:54;;;;;;;11.23;4.82;;;;;;;;;;5046441;28;20037;-80
2022/11/02 03:25:29;;;;;;;13.43;5.45;;;;;;;;;;5047594;28;20017;-80
2022/11/02 03:27:58;;;;;;;7.80;4.85;;;;;;;;;;5047177;28;20025;-80
2022/11/02 03:30:25;;;;;;;12.30;5.05;;;;;;;;;;5063532;28;20025;-80
2022/11/02 03:33:09;;;;;;;15.20;5.45;;;;;;;;;;5047155;28;20053;-79
2022/11/02 03:35:39;;;;;;;11.55;5.20;;;;;;;;;;5062159;28;20036;-79
2022/11/02 03:38:34;;;;;;;12.68;4.68;;;;;;;;;;5039828;28;20052;-79
2022/11/02 03:41:03;;;;;;;15.10;4.50;;;;;;;;;;5045568;28;20037;-79
2022/11/02 03:43:38;;;;;;;10.55;4.03;;;;;;;;;;5056223;28;20028;-79
2022/11/02 03:46:07;;;;;;;5.93;3.63;;;;;;;;;;5039748;28;20488;-79
2022/11/02 03:48:41;;;;;;;12.40;4.43;;;;;;;;;;5046768;22;20045;-79
2022/11/02 03:51:09;;;;;;;5.00;3.42;;;;;;;;;;5054953;28;20029;-80
2022/11/02 03:53:50;;;;;;;9.57;4.22;;;;;;;;;;5066932;28;20013;-80
2022/11/02 03:56:41;;;;;;;;;;;;;;;;;;;;;
2022/11/02 03:59:08;;;;;;;7.82;3.72;;;;;;;;;;5082175;22;20104;-80
2022/11/02 04:02:00;;;;;;;9.70;3.97;;;;;;;;;;5045874;28;20403;-80
2022/11/02 04:04:35;;;;;;;9.13;3.17;;;;;;;;;;5035491;28;20021;-79
2022/11/02 04:09:44;;;;;;;10.27;2.72;;;;;;;;;;5115110;22;20041;-80
2022/11/02 04:15:14;;;;;;;10.93;5.50;;;;;;;;;;5087062;28;20035;-80
2022/11/02 04:28:22;;;;;;;7.13;3.28;;;;;;;;;;5065052;28;20041;-79
2022/11/02 04:31:13;;;;;;;8.82;3.20;;;;;;;;;;5042383;28;20036;-79
2022/11/02 04:33:44;;;;;;;6.63;2.42;;;;;;;;;;5064523;28;20013;-80
2022/11/02 04:36:13;;;;;;;7.38;2.58;;;;;;;;;;5062502;28;20012;-80
2022/11/02 04:38:46;;;;;;;6.57;2.65;;;;;;;;;;5122751;23;20041;-79
2022/11/02 04:44:27;;;;;;;7.97;2.70;;;;;;;;;;5042520;28;20439;-80
2022/11/02 04:47:13;;;;;;;;;;;;;;;;;;;;;
2022/11/02 04:49:37;;;;;;;8.13;3.05;;;;;;;;;;5107544;22;20460;-79
2022/11/02 04:52:09;;;;;;;7.85;2.38;;;;;;;;;;5006995;28;20129;-79
2022/11/02 04:54:38;;;;;;;7.38;2.40;;;;;;;;;;5032059;28;20027;-79
2022/11/02 05:00:04;;;;;;;6.60;2.50;;;;;;;;;;4712625;26;20045;-79
2022/11/02 05:02:30;;;;;;;8.20;2.88;;;;;;;;;;5032745;28;20475;-79
2022/11/02 05:04:59;;;;;;;8.60;4.00;;;;;;;;;;5056533;28;20111;-79
2022/11/02 05:07:30;;;;;;;10.60;3.83;;;;;;;;;;5038228;28;20137;-78
2022/11/02 05:09:57;;;;;;;10.82;3.05;;;;;;;;;;5058674;28;20033;-78
2022/11/02 05:12:25;;;;;;;8.40;2.72;;;;;;;;;;5041185;28;20025;-79
2022/11/02 05:14:54;;;;;;;10.20;2.92;;;;;;;;;;5057046;28;20029;-79
2022/11/02 05:17:25;;;;;;;8.88;3.10;;;;;;;;;;5063297;28;20021;-80
2022/11/02 05:19:57;;;;;;;12.68;3.38;;;;;;;;;;5040668;28;20029;-80
2022/11/02 05:22:25;;;;;;;8.55;3.05;;;;;;;;;;5043723;28;20032;-80
2022/11/02 05:25:17;;;;;;;7.95;3.22;;;;;;;;;;5045399;28;20372;-80
2022/11/02 05:27:49;;;;;;;4.90;2.67;;;;;;;;;;5039419;28;20051;-79
2022/11/02 05:30:22;;;;;;;5.93;3.03;;;;;;;;;;5062935;28;20018;-80
2022/11/02 05:33:01;;;;;;;8.88;2.90;;;;;;;;;;5046803;28;20025;-80
2022/11/02 05:35:30;;;;;;;9.90;3.25;;;;;;;;;;5041562;28;20060;-80
2022/11/02 05:38:00;;;;;;;11.57;3.63;;;;;;;;;;5065509;28;20029;-80
2022/11/02 05:40:26;;;;;;;8.80;3.17;;;;;;;;;;5055903;28;20063;-80
2022/11/02 05:43:01;;;;;;;10.43;2.85;;;;;;;;;;5050211;28;20040;-79
2022/11/02 05:45:33;;;;;;;8.60;3.50;;;;;;;;;;5041575;28;20033;-79
2022/11/02 05:48:06;;;;;;;9.93;3.58;;;;;;;;;;5042361;22;20050;-79
2022/11/02 05:50:39;;;;;;;13.05;3.97;;;;;;;;;;5037269;28;20060;-79
2022/11/02 05:53:05;;;;;;;14.20;3.78;;;;;;;;;;5034711;28;20064;-79
2022/11/02 05:55:37;;;;;;;15.20;4.07;;;;;;;;;;5036753;28;20025;-79
2022/11/02 05:58:03;;;;;;;12.43;3.47;;;;;;;;;;5026702;28;20054;-79
2022/11/02 06:00:34;;;;;;;9.73;3.08;;;;;;;;;;5037022;28;20025;-79
2022/11/02 06:03:00;;;;;;;8.15;3.33;;;;;;;;;;5038146;28;20029;-80
2022/11/02 06:05:26;;;;;;;6.32;2.88;;;;;;;;;;5026057;28;20567;-79
2022/11/02 06:08:09;;;;;;;;;;;;;;;;;;;;;
2022/11/02 06:10:36;;;;;;;8.30;3.20;;;;;;;;;;5022962;28;20090;-80
2022/11/02 06:13:07;;;;;;;11.90;3.67;;;;;;;;;;5020897;28;20026;-78
2022/11/02 06:15:33;;;;;;;;;;;;;;;;;;5030693;28;20069;-79
2022/11/02 06:18:06;;;;;;;9.13;2.95;;;;;;;;;;5029207;28;19917;-81
2022/11/02 06:20:44;;;;;;;12.02;4.07;;;;;;;;;;5021264;28;20026;-80
2022/11/02 06:23:28;;;;;;;11.95;4.28;;;;;;;;;;5037182;28;20057;-80
2022/11/02 06:26:01;;;;;;;11.18;3.10;;;;;;;;;;5040388;28;20021;-78
2022/11/02 06:28:29;;;;;;;12.35;3.63;;;;;;;;;;5030612;28;20049;-79
2022/11/02 06:30:56;;;;;;;12.13;3.80;;;;;;;;;;5039111;28;20030;-81
2022/11/02 06:33:25;;;;;;;13.02;4.07;;;;;;;;;;5039435;28;20037;-80
2022/11/02 06:36:04;;;;;;;;;;;;;;;;;;;;;
2022/11/02 06:38:40;;;;;;;9.10;2.80;;;;;;;;;;5028185;28;20097;-80
2022/11/02 06:41:15;;;;;;;9.63;2.60;;;;;;;;;;5029925;28;20041;-80
2022/11/02 06:43:46;;;;;;;8.57;2.72;;;;;;;;;;5036997;28;20040;-79
2022/11/02 06:46:36;;;;;;;6.90;2.15;;;;;;;;;;5027773;28;20491;-80
2022/11/02 06:49:07;;;;;;;8.30;2.80;;;;;;;;;;5018657;28;20416;-79
2022/11/02 06:51:36;;;;;;;12.43;2.80;;;;;;;;;;5028271;28;20721;-79
2022/11/02 06:54:09;;;;;;;7.32;2.33;;;;;;;;;;5029191;28;20036;-80
2022/11/02 06:56:41;;;;;;;8.73;2.38;;;;;;;;;;5034513;28;20500;-80
2022/11/02 06:59:09;;;;;;;;;;;;;;;;;;5021474;28;20021;-80
2022/11/02 07:04:47;;;;;;;10.13;2.80;;;;;;;;;;5014837;28;20102;-80
2022/11/02 07:07:38;;;;;;;12.27;2.75;;;;;;;;;;5026325;28;20022;-79
2022/11/02 07:10:07;;;;;;;11.95;3.05;;;;;;;;;;5035253;28;20130;-79
2022/11/02 07:12:43;;;;;;;6.47;2.05;;;;;;;;;;5017204;28;20080;-83
2022/11/02 07:15:17;;;;;;;9.38;2.50;;;;;;;;;;5030781;28;20030;-83
2022/11/02 07:17:46;;;;;;;8.55;2.15;;;;;;;;;;5027420;28;20047;-83
2022/11/02 07:20:20;;;;;;;10.43;2.42;;;;;;;;;;5036492;28;20064;-84
2022/11/02 07:22:57;;;;;;;10.30;2.63;;;;;;;;;;5032134;28;20124;-84
2022/11/02 07:25:33;;;;;;;14.45;2.45;;;;;;;;;;5045930;28;20072;-83
2022/11/02 07:28:00;;;;;;;10.98;2.30;;;;;;;;;;5028410;28;20037;-82
2022/11/02 07:30:32;;;;;;;8.35;3.00;;;;;;;;;;5039881;28;20025;-83
2022/11/02 07:33:02;;;;;;;10.30;3.20;;;;;;;;;;5039750;28;20044;-83
2022/11/02 07:35:32;;;;;;;14.30;3.30;;;;;;;;;;5037475;28;20109;-83
2022/11/02 07:38:05;;;;;;;8.18;4.20;;;;;;;;;;5069011;22;20095;-82
2022/11/02 07:40:41;;;;;;;9.82;2.92;;;;;;;;;;5064485;28;20029;-81
2022/11/02 07:43:14;;;;;;;9.25;3.20;;;;;;;;;;5045351;28;20067;-83
2022/11/02 07:45:42;;;;;;;11.88;2.38;;;;;;;;;;5061131;28;20380;-82
2022/11/02 07:48:11;;;;;;;7.63;2.70;;;;;;;;;;5075432;28;20525;-82
2022/11/02 07:50:43;;;;;;;12.70;2.67;;;;;;;;;;5056855;28;20037;-82
2022/11/02 07:53:24;;;;;;;12.55;2.92;;;;;;;;;;5043833;28;20036;-83
2022/11/02 07:55:53;;;;;;;;;;;;;;;;;;5063509;28;20040;-84
2022/11/02 07:58:19;;;;;;;9.63;3.38;;;;;;;;;;5046979;28;20191;-84
2022/11/02 08:00:55;;;;;;;11.35;3.25;;;;;;;;;;5062936;28;20020;-83
2022/11/02 08:03:24;;;;;;;9.02;2.63;;;;;;;;;;5066321;28;20140;-83
2022/11/02 08:05:52;;;;;;;6.95;2.80;;;;;;;;;;5073617;28;20344;-85
2022/11/02 08:08:22;;;;;;;6.75;2.65;;;;;;;;;;5050024;28;20561;-82
2022/11/02 08:11:13;;;;;;;11.13;3.10;;;;;;;;;;5047030;28;20029;-83
2022/11/02 08:13:44;;;;;;;9.73;3.58;;;;;;;;;;5068638;28;20025;-83
2022/11/02 08:16:12;;;;;;;9.70;2.50;;;;;;;;;;5050874;28;20408;-82
2022/11/02 08:18:46;;;;;;;7.70;2.78;;;;;;;;;;5062975;28;20111;-82
2022/11/02 08:21:32;;;;;;;13.93;4.13;;;;;;;;;;5054432;28;20040;-82
2022/11/02 08:24:01;;;;;;;10.20;3.13;;;;;;;;;;5061216;28;20035;-84
2022/11/02 08:26:29;;;;;;;16.45;3.80;;;;;;;;;;5055913;28;20098;-83
2022/11/02 08:29:22;;;;;;;12.60;4.50;;;;;;;;;;5047319;28;20112;-83
2022/11/02 08:32:00;;;;;;;13.80;3.63;;;;;;;;;;5021444;28;20553;-82
2022/11/02 08:56:36;;;;;;;;;;;;;;;;;;;;;
2022/11/02 08:59:34;;;;;;;;;;;;;;;;;;;;;
2022/11/02 09:02:06;;;;;;;12.82;2.85;;;;;;;;;;5046976;28;20140;-82
2022/11/02 09:04:35;;;;;;;9.13;2.25;;;;;;;;;;5041274;28;20039;-83
2022/11/02 09:07:07;;;;;;;13.07;2.40;;;;;;;;;;5062769;28;20041;-84
2022/11/02 09:10:06;;;;;;;;;;;;;;;;;;5046113;28;20041;-84
2022/11/02 09:15:30;;;;;;;10.82;2.35;;;;;;;;;;5037349;28;20537;-81
2022/11/02 09:17:56;;;;;;;8.57;2.13;;;;;;;;;;5034454;22;20030;-80
2022/11/02 09:20:25;;;;;;;14.35;2.55;;;;;;;;;;5052605;28;20134;-79
2022/11/02 09:23:16;;;;;;;10.45;2.55;;;;;;;;;;5035590;28;20033;-81
2022/11/02 09:25:48;;;;;;;12.05;2.45;;;;;;;;;;5039823;28;20497;-81
2022/11/02 09:28:17;;;;;;;11.30;2.38;;;;;;;;;;5039271;28;20044;-81
2022/11/02 09:30:48;;;;;;;13.13;2.53;;;;;;;;;;5026575;28;20093;-81
2022/11/02 09:33:28;;;;;;;7.43;2.08;;;;;;;;;;5038832;28;20081;-82
2022/11/02 09:55:26;;;;;;;;;;;;;;;;;;;;;
2022/11/02 09:58:15;;;;;;;11.95;2.60;;;;;;;;;;5040159;28;20121;-81
2022/11/02 10:00:42;;;;;;;6.03;1.60;;;;;;;;;;5033194;28;20029;-80
2022/11/02 10:03:31;;;;;;;11.00;2.20;;;;;;;;;;5043594;28;20321;-81
2022/11/02 10:06:18;;;;;;;6.18;1.90;;;;;;;;;;4974791;28;20062;-82
2022/11/02 10:09:28;;;;;;;8.98;2.05;;;;;;;;;;4964683;28;20031;-82
2022/11/02 10:12:07;;;;;;;8.15;1.67;;;;;;;;;;4922100;29;20074;-83
2022/11/02 10:14:45;;;;;;;8.68;2.22;;;;;;;;;;5049182;28;20033;-83
2022/11/02 10:17:23;;;;;;;6.72;1.50;;;;;;;;;;5042081;28;20061;-82
2022/11/02 10:19:55;;;;;;;11.15;2.25;;;;;;;;;;5042369;28;20030;-80
2022/11/02 10:22:33;;;;;;;11.32;2.13;;;;;;;;;;5048912;28;20025;-83
2022/11/02 10:25:03;;;;;;;7.88;1.88;;;;;;;;;;5051430;28;20035;-81
2022/11/02 10:27:46;;;;;;;7.82;1.70;;;;;;;;;;5051249;28;19998;-82
2022/11/02 10:30:24;;;;;;;10.05;2.10;;;;;;;;;;5037999;28;20025;-82
2022/11/02 10:32:52;;;;;;;6.45;1.75;;;;;;;;;;5048031;28;20125;-80
2022/11/02 10:35:31;;;;;;;9.13;2.40;;;;;;;;;;5041515;28;20044;-80
2022/11/02 10:41:29;;;;;;;4.03;1.63;;;;;;;;;;5012243;28;20029;-80
2022/11/02 10:43:58;;;;;;;7.07;1.60;;;;;;;;;;5047107;28;20387;-82
2022/11/02 10:46:30;;;;;;;6.20;2.25;;;;;;;;;;5045931;28;20044;-82
2022/11/02 10:49:15;;;;;;;8.52;2.47;;;;;;;;;;5028337;28;20621;-82
2022/11/02 10:51:44;;;;;;;8.35;2.30;;;;;;;;;;5044626;28;20492;-81
2022/11/02 10:54:25;;;;;;;;;;;;;;;;;;;;;
2022/11/02 10:57:27;;;;;;;5.88;2.33;;;;;;;;;;5046573;28;20041;-82
2022/11/02 10:59:52;;;;;;;;;;;;;;;;;;5041891;28;20029;-82
2022/11/02 11:02:28;;;;;;;5.10;1.85;;;;;;;;;;5044897;28;19909;-82
2022/11/02 11:05:13;;;;;;;6.93;2.25;;;;;;;;;;5044148;28;20030;-81
2022/11/02 11:07:43;;;;;;;9.85;2.20;;;;;;;;;;5045751;28;20022;-80
2022/11/02 11:10:14;;;;;;;9.02;2.47;;;;;;;;;;5056250;28;20013;-82
2022/11/02 11:13:06;;;;;;;5.88;1.92;;;;;;;;;;5053076;28;20040;-83
2022/11/02 11:15:45;;;;;;;8.38;1.65;;;;;;;;;;5051020;28;20045;-81
2022/11/02 11:18:20;;;;;;;8.63;2.38;;;;;;;;;;5045692;28;20025;-80
2022/11/02 11:21:12;;;;;;;5.15;1.80;;;;;;;;;;5046768;28;20064;-80
2022/11/02 11:26:41;;;;;;;7.70;1.80;;;;;;;;;;5046804;28;20044;-81
2022/11/02 11:29:25;;;;;;;4.90;1.70;;;;;;;;;;5044914;28;20044;-82
2022/11/02 11:31:51;;;;;;;14.25;2.78;;;;;;;;;;5049959;28;20197;-82
2022/11/02 11:37:18;;;;;;;6.30;2.65;;;;;;;;;;5032747;28;20567;-83
2022/11/02 11:39:55;;;;;;;;;;;;;;;;;;;;;
2022/11/02 11:42:33;;;;;;;8.70;2.65;;;;;;;;;;5045652;28;20096;-80
2022/11/02 11:45:10;;;;;;;8.52;2.25;;;;;;;;;;5047351;28;20587;-80
2022/11/02 11:47:47;;;;;;;8.55;1.83;;;;;;;;;;5054696;28;20040;-83
2022/11/02 11:50:31;;;;;;;9.57;2.13;;;;;;;;;;5048706;28;20046;-82
2022/11/02 11:53:27;;;;;;;4.85;1.58;;;;;;;;;;5047305;28;20034;-81
2022/11/02 11:55:58;;;;;;;9.35;1.88;;;;;;;;;;5037062;28;20033;-80
2022/11/02 11:58:24;;;;;;;7.47;1.63;;;;;;;;;;5033921;28;20087;-83
2022/11/02 12:01:13;;;;;;;5.30;1.70;;;;;;;;;;5037083;28;20044;-81
2022/11/02 12:03:59;;;;;;;8.15;1.90;;;;;;;;;;5041925;28;20028;-81
2022/11/02 12:06:40;;;;;;;6.80;1.63;;;;;;;;;;5042138;28;20048;-80
2022/11/02 12:09:14;;;;;;;5.63;1.50;;;;;;;;;;5039384;28;20029;-79
2022/11/02 12:11:55;;;;;;;7.05;2.10;;;;;;;;;;5041215;28;20072;-78
2022/11/02 12:14:43;;;;;;;9.65;2.22;;;;;;;;;;5035398;28;20047;-79
2022/11/02 12:17:12;;;;;;;7.78;1.85;;;;;;;;;;5035713;28;20025;-79
2022/11/02 12:20:06;;;;;;;9.65;2.17;;;;;;;;;;5039613;28;20021;-79
2022/11/02 12:22:57;;;;;;;5.20;1.50;;;;;;;;;;5028585;28;20037;-79
2022/11/02 12:25:42;;;;;;;10.32;2.00;;;;;;;;;;5038871;28;20028;-79
2022/11/02 12:28:35;;;;;;;6.55;2.25;;;;;;;;;;5029651;28;20387;-78
2022/11/02 12:31:28;;;;;;;6.82;1.65;;;;;;;;;;5031939;28;20022;-80
2022/11/02 12:48:54;;;;;;;7.05;1.40;;;;;;;;;;5044788;28;20120;-81
2022/11/02 12:51:42;;;;;;;10.10;2.10;;;;;;;;;;5065801;28;20029;-81
2022/11/02 12:54:47;;;;;;;;;;;;;;;;;;;;;
2022/11/02 12:57:10;;;;;;;9.38;2.00;;;;;;;;;;5028334;28;20053;-75
2022/11/02 12:59:40;;;;;;;12.52;2.60;;;;;;;;;;5033145;28;20021;-75
2022/11/02 13:02:11;;;;;;;8.88;2.90;;;;;;;;;;5048040;28;20028;-76
2022/11/02 13:04:45;;;;;;;4.97;2.00;;;;;;;;;;5048113;28;20021;-75
2022/11/02 13:07:13;;;;;;;5.95;2.33;;;;;;;;;;5012430;28;20242;-75
2022/11/02 13:09:48;;;;;;;7.57;1.65;;;;;;;;;;5013141;28;20045;-75
2022/11/02 13:12:15;;;;;;;8.38;1.70;;;;;;;;;;5000341;28;20040;-75
2022/11/02 13:14:43;;;;;;;8.23;1.83;;;;;;;;;;5013509;28;20427;-72
2022/11/02 13:17:14;;;;;;;8.45;1.75;;;;;;;;;;5012546;28;20029;-75
2022/11/02 13:19:40;;;;;;;;;;;;;;;;;;5013919;28;20049;-75
2022/11/02 13:22:08;;;;;;;7.45;1.75;;;;;;;;;;5012857;28;19952;-75
2022/11/02 13:24:38;;;;;;;8.93;2.25;;;;;;;;;;5013301;28;20026;-75
2022/11/02 13:27:05;;;;;;;7.93;1.95;;;;;;;;;;5012472;28;20101;-74
2022/11/02 13:29:41;;;;;;;9.85;2.70;;;;;;;;;;5013413;28;20076;-75
2022/11/02 13:32:17;;;;;;;8.05;1.83;;;;;;;;;;5012962;28;20026;-74
2022/11/02 13:34:45;;;;;;;10.55;2.13;;;;;;;;;;5012986;28;20033;-75
2022/11/02 13:37:19;;;;;;;7.38;1.83;;;;;;;;;;5012088;28;20022;-75
2022/11/02 13:39:48;;;;;;;6.75;1.65;;;;;;;;;;5028058;28;20052;-75
2022/11/02 13:42:34;;;;;;;6.80;2.42;;;;;;;;;;5027742;28;20055;-74
2022/11/02 13:45:21;;;;;;;9.52;2.33;;;;;;;;;;5008375;28;21756;-75
2022/11/02 13:47:53;;;;;;;5.90;2.35;;;;;;;;;;5027492;28;20021;-75
2022/11/02 13:50:21;;;;;;;9.35;2.28;;;;;;;;;;5012618;28;20018;-75
2022/11/02 13:52:52;;;;;;;7.13;2.13;;;;;;;;;;5012770;28;20025;-75
2022/11/02 13:55:22;;;;;;;7.45;1.80;;;;;;;;;;5012147;28;20026;-74
2022/11/02 13:57:58;;;;;;;8.57;2.13;;;;;;;;;;5011793;28;20034;-75
2022/11/02 14:00:24;;;;;;;8.45;2.38;;;;;;;;;;5024473;28;20030;-75
2022/11/02 14:02:52;;;;;;;8.57;2.25;;;;;;;;;;4993096;28;20087;-75
2022/11/02 14:05:32;;;;;;;8.07;1.98;;;;;;;;;;4993323;28;20014;-75
2022/11/02 14:08:04;;;;;;;9.68;1.98;;;;;;;;;;4992347;28;20030;-76
2022/11/02 14:10:30;;;;;;;;;;;;;;;;;;4993033;28;20018;-75
2022/11/02 14:12:56;;;;;;;10.88;2.80;;;;;;;;;;5000698;28;19972;-75
2022/11/02 14:15:22;;;;;;;8.65;2.53;;;;;;;;;;5004138;28;20031;-75
2022/11/02 14:17:55;;;;;;;9.95;2.30;;;;;;;;;;5002537;28;20058;-73
2022/11/02 14:20:33;;;;;;;6.47;2.15;;;;;;;;;;4995365;28;20037;-74
2022/11/02 14:23:14;;;;;;;4.18;1.48;;;;;;;;;;4992453;28;20109;-75
2022/11/02 14:25:53;;;;;;;5.88;1.80;;;;;;;;;;4992745;28;20018;-75
2022/11/02 14:28:19;;;;;;;8.30;1.48;;;;;;;;;;5006823;28;20359;-74
2022/11/02 14:30:47;;;;;;;5.65;1.63;;;;;;;;;;5011853;28;20097;-75
2022/11/02 14:33:18;;;;;;;8.50;1.73;;;;;;;;;;5011868;28;20022;-75
2022/11/02 14:35:49;;;;;;;11.18;2.58;;;;;;;;;;5012059;28;20034;-74
2022/11/02 14:38:30;;;;;;;6.00;1.77;;;;;;;;;;5010936;28;20113;-74
2022/11/02 14:40:57;;;;;;;;;;;;;;;;;;5012250;28;20086;-75
2022/11/02 14:43:38;;;;;;;7.57;2.17;;;;;;;;;;5011527;28;20302;-75
2022/11/02 14:46:16;;;;;;;10.05;2.20;;;;;;;;;;5012555;28;20030;-75
2022/11/02 14:48:50;;;;;;;8.02;2.85;;;;;;;;;;5026807;28;20030;-76
2022/11/02 14:51:42;;;;;;;8.75;2.15;;;;;;;;;;5012478;28;20029;-74
2022/11/02 14:54:19;;;;;;;4.70;1.83;;;;;;;;;;4999945;28;20050;-71
2022/11/02 14:56:57;;;;;;;5.90;1.80;;;;;;;;;;5011165;28;20041;-74
2022/11/02 14:59:29;;;;;;;6.57;1.73;;;;;;;;;;5011270;28;20496;-74
2022/11/02 15:01:55;;;;;;;5.82;1.45;;;;;;;;;;5026272;28;20018;-74
2022/11/02 15:04:21;;;;;;;8.40;1.92;;;;;;;;;;5011703;28;20067;-73
2022/11/02 15:07:06;;;;;;;6.60;2.00;;;;;;;;;;5011050;28;20050;-76
2022/11/02 15:09:51;;;;;;;7.90;1.95;;;;;;;;;;5011870;28;20033;-76
2022/11/02 15:12:22;;;;;;;8.57;2.35;;;;;;;;;;5011256;28;20029;-72
2022/11/02 15:14:48;;;;;;;7.43;2.10;;;;;;;;;;5011377;28;20030;-73
2022/11/02 15:17:14;;;;;;;8.05;1.90;;;;;;;;;;4997440;28;20143;-75
2022/11/02 15:19:45;;;;;;;6.72;1.60;;;;;;;;;;5026077;28;20119;-75
2022/11/02 15:22:37;;;;;;;11.40;2.20;;;;;;;;;;5010786;28;20438;-73
2022/11/02 15:25:06;;;;;;;9.45;2.10;;;;;;;;;;5011491;28;20109;-74
2022/11/02 15:27:34;;;;;;;6.03;2.13;;;;;;;;;;5025535;28;20507;-76
2022/11/02 15:30:00;;;;;;;7.30;2.35;;;;;;;;;;5011405;28;20022;-75
2022/11/02 15:32:28;;;;;;;7.90;2.33;;;;;;;;;;5010923;28;20105;-74
2022/11/02 15:34:55;;;;;;;7.70;2.60;;;;;;;;;;5025799;28;20391;-74
2022/11/02 15:37:25;;;;;;;8.68;2.33;;;;;;;;;;5009821;28;20022;-76
2022/11/02 15:39:56;;;;;;;5.22;2.00;;;;;;;;;;5024848;28;20030;-75
2022/11/02 15:42:25;;;;;;;7.40;2.45;;;;;;;;;;5008781;28;20037;-74
2022/11/02 15:45:02;;;;;;;9.32;3.08;;;;;;;;;;5005965;28;20036;-75
2022/11/02 15:47:34;;;;;;;9.32;2.88;;;;;;;;;;5010118;28;20488;-74
2022/11/02 15:50:00;;;;;;;10.80;2.50;;;;;;;;;;5010954;28;20029;-76
2022/11/02 15:52:36;;;;;;;15.85;2.85;;;;;;;;;;5010741;28;20401;-76
2022/11/02 15:55:10;;;;;;;7.50;2.22;;;;;;;;;;5010524;28;20038;-76
2022/11/02 15:57:38;;;;;;;9.07;2.45;;;;;;;;;;5009821;28;20030;-75
2022/11/02 16:00:14;;;;;;;6.30;2.58;;;;;;;;;;5010587;28;20447;-75
2022/11/02 16:02:41;;;;;;;6.13;2.47;;;;;;;;;;5010594;28;20026;-73
2022/11/02 16:05:19;;;;;;;6.95;2.67;;;;;;;;;;5010529;28;20018;-75
2022/11/02 16:07:45;;;;;;;7.45;3.45;;;;;;;;;;5010189;28;20022;-76
2022/11/02 16:10:18;;;;;;;11.20;3.20;;;;;;;;;;5010988;28;20029;-76
2022/11/02 16:12:44;;;;;;;6.13;2.97;;;;;;;;;;5010419;28;20072;-76
2022/11/02 16:15:12;;;;;;;7.75;2.72;;;;;;;;;;5010862;28;20029;-75
2022/11/02 16:17:39;;;;;;;8.77;2.53;;;;;;;;;;5010384;28;20033;-76
2022/11/02 16:20:14;;;;;;;7.90;2.92;;;;;;;;;;5025888;28;20137;-76
2022/11/02 16:22:46;;;;;;;16.52;3.70;;;;;;;;;;5010692;28;20029;-76
2022/11/02 16:25:11;;;;;;;;;;;;;;;;;;5010774;28;20093;-74
2022/11/02 16:27:38;;;;;;;8.43;3.72;;;;;;;;;;5009828;28;20491;-75
2022/11/02 16:30:05;;;;;;;12.00;4.43;;;;;;;;;;5010479;28;20026;-74
2022/11/02 16:32:31;;;;;;;9.65;3.85;;;;;;;;;;5011703;28;20022;-75
2022/11/02 16:34:59;;;;;;;10.50;3.85;;;;;;;;;;5027839;28;20041;-73
2022/11/02 16:37:26;;;;;;;10.88;4.57;;;;;;;;;;5011809;28;20517;-75
2022/11/02 16:39:52;;;;;;;9.45;3.85;;;;;;;;;;5013571;28;20053;-75
2022/11/02 16:42:21;;;;;;;7.25;3.22;;;;;;;;;;5013838;28;20096;-76
2022/11/02 16:44:58;;;;;;;10.55;3.58;;;;;;;;;;5029478;28;20018;-76
2022/11/02 16:47:40;;;;;;;9.57;3.65;;;;;;;;;;5012844;28;20488;-76
2022/11/02 16:50:25;;;;;;;10.82;3.28;;;;;;;;;;5014508;28;20080;-78
2022/11/02 16:52:54;;;;;;;12.65;4.43;;;;;;;;;;5029917;28;20029;-76
2022/11/02 16:55:39;;;;;;;8.80;3.35;;;;;;;;;;5029692;28;20037;-77
2022/11/02 16:58:07;;;;;;;10.32;3.95;;;;;;;;;;5014532;28;20491;-76
2022/11/02 17:00:33;;;;;;;12.00;4.03;;;;;;;;;;5001576;28;20080;-76
2022/11/02 17:03:06;;;;;;;6.95;3.20;;;;;;;;;;5013691;28;20084;-74
2022/11/02 17:05:32;;;;;;;8.82;3.50;;;;;;;;;;5013631;28;20026;-75
2022/11/02 17:08:03;;;;;;;9.02;3.60;;;;;;;;;;5012690;28;20054;-74
2022/11/02 17:10:29;;;;;;;9.90;2.92;;;;;;;;;;5028744;28;20072;-75
2022/11/02 17:12:56;;;;;;;10.60;3.30;;;;;;;;;;5013451;28;20035;-75